Time;durP1;ratioP1;P1;durP2;ratioP2;P2;SDS_P1;SDS_P2;PMS_P1;PMS_P2;Temp;Humidity;BMP_temperature;BMP_pressure;BME280_temperature;BME280_humidity;BME280_pressure;Samples;Min_cycle;Max_cycle;Signal;HPM_P1;HPM_P2
2022/07/13 00:02:18;;;;;;;0.70;0.40;;;18.00;94.70;;;;;;6176420;28;20050;-81
2022/07/13 00:05:21;;;;;;;1.20;0.43;;;17.90;94.70;;;;;;6175604;28;20417;-81
2022/07/13 00:08:24;;;;;;;1.00;0.43;;;17.90;94.70;;;;;;6174330;28;20424;-81
2022/07/13 00:11:26;;;;;;;1.42;0.50;;;17.80;94.80;;;;;;6175504;28;20051;-82
2022/07/13 00:14:27;;;;;;;1.70;0.50;;;17.70;95.00;;;;;;6175190;28;20047;-82
2022/07/13 00:17:29;;;;;;;1.67;0.47;;;17.70;95.10;;;;;;6174466;28;20054;-81
2022/07/13 00:20:32;;;;;;;0.68;0.40;;;17.60;95.10;;;;;;6175112;28;20055;-81
2022/07/13 00:23:34;;;;;;;0.85;0.40;;;17.50;95.20;;;;;;6174160;28;20051;-82
2022/07/13 00:26:36;;;;;;;1.17;0.68;;;17.40;95.40;;;;;;6175475;28;20163;-81
2022/07/13 00:29:37;;;;;;;0.82;0.50;;;17.40;95.50;;;;;;6179081;28;20046;-81
2022/07/13 00:32:39;;;;;;;0.63;0.30;;;17.30;95.40;;;;;;6179823;28;20047;-81
2022/07/13 00:35:42;;;;;;;0.85;0.50;;;17.20;95.60;;;;;;6178327;28;20073;-81
2022/07/13 00:38:44;;;;;;;1.63;0.50;;;17.30;95.80;;;;;;6178893;28;20051;-81
2022/07/13 00:41:47;;;;;;;1.00;0.50;;;17.30;95.80;;;;;;6178876;28;20699;-81
2022/07/13 00:44:49;;;;;;;0.57;0.32;;;17.40;95.80;;;;;;6179553;28;20058;-81
2022/07/13 00:47:50;;;;;;;0.80;0.70;;;17.50;95.60;;;;;;6178366;28;20531;-81
2022/07/13 00:50:54;;;;;;;2.58;0.45;;;17.60;95.40;;;;;;6179452;28;20054;-81
2022/07/13 00:53:56;;;;;;;1.20;0.45;;;17.70;95.30;;;;;;6179125;28;20042;-80
2022/07/13 00:56:58;;;;;;;1.35;0.50;;;17.90;95.00;;;;;;6179509;28;20420;-81
2022/07/13 01:00:03;;;;;;;1.23;0.60;;;18.00;94.70;;;;;;6178339;28;20051;-81
2022/07/13 01:03:05;;;;;;;3.50;0.60;;;18.10;94.40;;;;;;6179350;28;20046;-81
2022/07/13 01:06:08;;;;;;;0.80;0.35;;;18.20;94.20;;;;;;6178389;28;20062;-81
2022/07/13 01:09:10;;;;;;;1.67;0.65;;;18.30;94.10;;;;;;6178447;28;20050;-81
2022/07/13 01:12:12;;;;;;;0.22;0.17;;;18.40;93.90;;;;;;6178820;28;20047;-81
2022/07/13 01:15:14;;;;;;;1.20;0.57;;;18.40;93.80;;;;;;6177789;28;20054;-81
2022/07/13 01:18:16;;;;;;;0.65;0.50;;;18.40;93.80;;;;;;6178504;28;20054;-81
2022/07/13 01:21:19;;;;;;;0.98;0.50;;;18.40;93.80;;;;;;6179562;28;20062;-82
2022/07/13 01:24:23;;;;;;;0.68;0.50;;;18.40;93.80;;;;;;6179711;28;20062;-81
2022/07/13 01:27:25;;;;;;;2.30;0.52;;;18.40;93.70;;;;;;6179237;28;20531;-81
2022/07/13 01:30:26;;;;;;;1.83;0.80;;;18.40;93.60;;;;;;6179128;28;20047;-81
2022/07/13 01:33:28;;;;;;;0.82;0.40;;;18.30;93.50;;;;;;6179150;28;20427;-81
2022/07/13 01:36:30;;;;;;;0.77;0.55;;;18.30;93.50;;;;;;6179207;28;20062;-81
2022/07/13 01:39:33;;;;;;;2.38;0.45;;;18.30;93.60;;;;;;6179187;28;20054;-81
2022/07/13 01:42:41;;;;;;;0.80;0.40;;;18.30;93.50;;;;;;6178423;28;20053;-80
2022/07/13 01:45:45;;;;;;;4.88;0.50;;;18.40;93.50;;;;;;6178289;28;20043;-80
2022/07/13 01:48:47;;;;;;;0.82;0.30;;;18.40;93.60;;;;;;6178536;28;20054;-80
2022/07/13 01:51:48;;;;;;;0.57;0.40;;;18.30;93.70;;;;;;6177253;28;20501;-80
2022/07/13 01:54:51;;;;;;;0.43;0.22;;;18.20;93.70;;;;;;6177542;28;20412;-80
2022/07/13 01:57:57;;;;;;;1.15;0.75;;;18.20;93.90;;;;;;6177472;28;20042;-82
2022/07/13 02:00:59;;;;;;;1.52;0.63;;;18.20;93.90;;;;;;6177639;28;20046;-80
2022/07/13 02:04:01;;;;;;;1.20;0.60;;;18.30;93.80;;;;;;6177105;28;20390;-80
2022/07/13 02:07:02;;;;;;;1.60;0.98;;;18.30;93.70;;;;;;6177106;28;20053;-80
2022/07/13 02:10:07;;;;;;;2.22;0.50;;;18.30;93.70;;;;;;6176887;28;20389;-81
2022/07/13 02:13:11;;;;;;;1.13;0.73;;;18.30;93.60;;;;;;6177625;28;20051;-81
2022/07/13 02:16:13;;;;;;;1.27;0.75;;;18.20;93.50;;;;;;6177607;28;20407;-81
2022/07/13 02:19:14;;;;;;;4.10;0.65;;;18.20;93.60;;;;;;6177280;28;20047;-81
2022/07/13 02:22:16;;;;;;;0.73;0.60;;;18.20;93.70;;;;;;6177717;28;20066;-82
2022/07/13 02:25:20;;;;;;;1.60;0.80;;;18.10;93.80;;;;;;6177271;28;20055;-80
2022/07/13 02:28:21;;;;;;;2.35;0.50;;;18.00;93.90;;;;;;6177271;28;20054;-81
2022/07/13 02:31:23;;;;;;;1.17;0.52;;;17.80;94.00;;;;;;6177090;28;20050;-80
2022/07/13 02:34:27;;;;;;;1.85;0.73;;;17.70;94.20;;;;;;6178158;28;20051;-81
2022/07/13 02:37:28;;;;;;;4.22;1.05;;;17.60;94.40;;;;;;6177859;28;20042;-80
2022/07/13 02:40:32;;;;;;;0.73;0.60;;;17.50;94.70;;;;;;6177643;28;20047;-81
2022/07/13 02:43:33;;;;;;;2.42;1.00;;;17.40;94.90;;;;;;6177250;28;20050;-80
2022/07/13 02:46:35;;;;;;;1.77;0.85;;;17.30;95.20;;;;;;6177097;28;20535;-81
2022/07/13 02:49:37;;;;;;;2.72;1.08;;;17.20;95.40;;;;;;6176877;28;20053;-81
2022/07/13 02:52:39;;;;;;;1.45;0.98;;;17.10;95.70;;;;;;6177598;28;20054;-81
2022/07/13 02:55:42;;;;;;;1.90;0.90;;;17.00;95.90;;;;;;6177205;28;20058;-81
2022/07/13 02:58:43;;;;;;;1.88;0.82;;;16.90;96.20;;;;;;6176258;28;20058;-80
2022/07/13 03:01:45;;;;;;;1.98;0.75;;;16.90;96.30;;;;;;6176825;28;20492;-80
2022/07/13 03:04:47;;;;;;;1.02;0.80;;;16.80;96.30;;;;;;6177263;28;20098;-80
2022/07/13 03:07:48;;;;;;;4.10;1.77;;;16.80;96.60;;;;;;6176114;28;20047;-80
2022/07/13 03:10:51;;;;;;;4.28;0.82;;;16.70;96.60;;;;;;6176796;28;20047;-80
2022/07/13 03:13:53;;;;;;;9.82;1.27;;;16.70;96.60;;;;;;6176743;28;20417;-80
2022/07/13 03:16:55;;;;;;;4.18;1.33;;;16.70;96.50;;;;;;6177334;28;20058;-81
2022/07/13 03:19:56;;;;;;;2.10;1.05;;;16.60;96.70;;;;;;6176503;28;20059;-80
2022/07/13 03:22:58;;;;;;;2.05;1.15;;;16.60;96.70;;;;;;6175495;28;20046;-80
2022/07/13 03:26:01;;;;;;;1.25;0.65;;;16.50;96.70;;;;;;6176600;28;20050;-79
2022/07/13 03:29:03;;;;;;;5.22;1.77;;;16.40;96.80;;;;;;6175727;28;20142;-81
2022/07/13 03:32:06;;;;;;;4.93;1.20;;;16.30;96.90;;;;;;6175572;28;20061;-80
2022/07/13 03:35:08;;;;;;;2.78;1.48;;;16.40;97.10;;;;;;6175638;28;20053;-80
2022/07/13 03:38:10;;;;;;;2.80;1.13;;;16.40;97.00;;;;;;6175527;28;20051;-80
2022/07/13 03:41:13;;;;;;;1.25;0.90;;;16.40;96.90;;;;;;6175172;28;20057;-79
2022/07/13 03:44:15;;;;;;;1.20;0.73;;;16.30;96.90;;;;;;6174470;28;20047;-79
2022/07/13 03:47:16;;;;;;;1.88;0.93;;;16.30;96.90;;;;;;6175354;28;20058;-80
2022/07/13 03:50:18;;;;;;;4.53;1.10;;;16.20;96.90;;;;;;6175504;28;20051;-80
2022/07/13 03:53:20;;;;;;;1.50;0.80;;;16.20;96.80;;;;;;6175137;28;20054;-80
2022/07/13 03:56:23;;;;;;;3.05;0.93;;;16.20;96.70;;;;;;6175026;28;20083;-80
2022/07/13 03:59:25;;;;;;;2.42;1.08;;;16.30;96.60;;;;;;6174256;28;20050;-79
2022/07/13 04:02:27;;;;;;;2.92;1.00;;;16.30;96.40;;;;;;6175476;28;20508;-80
2022/07/13 04:05:28;;;;;;;2.20;0.80;;;16.40;96.40;;;;;;6180387;28;20042;-80
2022/07/13 04:08:30;;;;;;;5.53;1.60;;;16.50;96.40;;;;;;6179844;28;20520;-80
2022/07/13 04:11:33;;;;;;;4.63;1.00;;;16.60;96.30;;;;;;6180163;28;20053;-80
2022/07/13 04:14:35;;;;;;;5.53;1.10;;;16.70;96.20;;;;;;6180014;28;20055;-80
2022/07/13 04:17:37;;;;;;;2.58;1.02;;;16.90;96.20;;;;;;6179108;28;20080;-80
2022/07/13 04:20:38;;;;;;;6.75;1.20;;;17.10;96.10;;;;;;6179261;28;20050;-79
2022/07/13 04:23:40;;;;;;;3.53;1.08;;;17.40;96.20;;;;;;6178897;28;20042;-81
2022/07/13 04:26:43;;;;;;;9.65;1.00;;;18.00;95.00;;;;;;6178952;28;20162;-80
2022/07/13 04:29:45;;;;;;;2.28;1.27;;;18.30;94.40;;;;;;6178735;28;20043;-80
2022/07/13 04:32:47;;;;;;;4.38;0.88;;;18.40;94.10;;;;;;6179026;28;20047;-80
2022/07/13 04:35:48;;;;;;;2.40;0.90;;;18.50;93.70;;;;;;6178232;28;20420;-80
2022/07/13 04:38:50;;;;;;;2.30;0.60;;;18.50;93.40;;;;;;6179021;28;20046;-79
2022/07/13 04:41:53;;;;;;;2.80;0.63;;;18.60;93.20;;;;;;6179124;28;20050;-79
2022/07/13 04:44:55;;;;;;;2.28;0.70;;;18.60;93.10;;;;;;6178984;28;20058;-80
2022/07/13 04:47:57;;;;;;;1.95;0.73;;;18.70;92.90;;;;;;6178326;28;20058;-79
2022/07/13 04:50:58;;;;;;;1.27;0.70;;;18.80;92.90;;;;;;6178361;28;20428;-80
2022/07/13 04:54:00;;;;;;;4.57;1.27;;;19.00;92.60;;;;;;6178156;28;20054;-79
2022/07/13 04:57:03;;;;;;;5.55;1.30;;;19.60;92.10;;;;;;6178413;28;20051;-79
2022/07/13 05:00:06;;;;;;;3.08;1.00;;;19.90;91.00;;;;;;6178142;28;20051;-81
2022/07/13 05:03:08;;;;;;;1.95;1.08;;;19.90;90.80;;;;;;6177913;28;20069;-80
2022/07/13 05:06:10;;;;;;;1.48;0.68;;;19.90;90.90;;;;;;6178058;28;20051;-79
2022/07/13 05:09:12;;;;;;;2.65;1.05;;;20.00;90.80;;;;;;6178593;28;20051;-79
2022/07/13 05:12:15;;;;;;;1.42;0.85;;;20.40;90.50;;;;;;6178659;28;20054;-81
2022/07/13 05:15:18;;;;;;;3.75;0.80;;;20.70;89.90;;;;;;6178467;28;20050;-81
2022/07/13 05:18:19;;;;;;;4.95;1.23;;;21.10;88.60;;;;;;6178440;28;20520;-82
2022/07/13 05:21:21;;;;;;;6.93;1.10;;;22.80;85.60;;;;;;6178414;28;20058;-81
2022/07/13 05:24:23;;;;;;;6.50;1.25;;;24.20;78.20;;;;;;6179487;28;20490;-80
2022/07/13 05:27:26;;;;;;;12.70;1.95;;;24.10;76.30;;;;;;6178224;28;20047;-81
2022/07/13 05:30:27;;;;;;;9.63;1.33;;;23.80;76.10;;;;;;6177642;28;20042;-81
2022/07/13 05:33:29;;;;;;;5.90;1.23;;;23.40;77.20;;;;;;6178355;28;20053;-81
2022/07/13 05:36:31;;;;;;;7.32;1.05;;;23.10;78.10;;;;;;6178657;28;20047;-81
2022/07/13 05:39:33;;;;;;;5.85;1.15;;;22.90;79.10;;;;;;6177962;28;20130;-81
2022/07/13 05:42:36;;;;;;;9.45;0.95;;;22.80;79.70;;;;;;6177808;28;20058;-81
2022/07/13 05:45:37;;;;;;;8.07;1.20;;;22.80;79.80;;;;;;6178127;28;20066;-80
2022/07/13 05:48:39;;;;;;;8.98;0.70;;;22.90;80.10;;;;;;6178266;28;20051;-82
2022/07/13 05:51:41;;;;;;;2.75;0.73;;;22.90;80.20;;;;;;6177234;28;20051;-81
2022/07/13 05:54:42;;;;;;;4.13;0.45;;;22.90;80.40;;;;;;6177184;28;20043;-80
2022/07/13 05:57:46;;;;;;;4.43;0.98;;;22.90;80.70;;;;;;6176481;28;20432;-80
2022/07/13 06:00:47;;;;;;;5.25;1.00;;;23.10;80.90;;;;;;6177206;28;20540;-81
2022/07/13 06:03:49;;;;;;;16.85;1.80;;;23.30;80.40;;;;;;6176439;28;20046;-80
2022/07/13 06:06:51;;;;;;;2.35;0.47;;;23.50;79.70;;;;;;6176382;28;20058;-80
2022/07/13 06:09:52;;;;;;;2.88;0.90;;;23.70;79.00;;;;;;6176528;28;20042;-80
2022/07/13 06:12:55;;;;;;;5.25;1.20;;;23.80;78.50;;;;;;6176918;28;20046;-80
2022/07/13 06:15:59;;;;;;;11.30;1.95;;;23.90;77.80;;;;;;6175987;28;20046;-79
2022/07/13 06:19:01;;;;;;;20.90;1.70;;;24.20;77.30;;;;;;6175846;28;20077;-79
2022/07/13 06:22:02;;;;;;;9.32;1.52;;;24.40;76.70;;;;;;6175711;28;20045;-80
2022/07/13 06:25:05;;;;;;;13.65;1.42;;;24.60;76.10;;;;;;6175452;28;20050;-81
2022/07/13 06:28:08;;;;;;;4.13;1.00;;;24.80;75.30;;;;;;6175758;28;20424;-80
2022/07/13 06:31:10;;;;;;;7.93;1.20;;;25.10;74.30;;;;;;6175925;28;20091;-81
2022/07/13 06:34:12;;;;;;;9.77;1.33;;;25.50;73.50;;;;;;6175474;28;20046;-80
2022/07/13 06:37:13;;;;;;;6.63;1.00;;;25.70;72.60;;;;;;6176272;28;20051;-80
2022/07/13 06:40:16;;;;;;;3.10;0.60;;;25.90;71.90;;;;;;6176398;28;20053;-82
2022/07/13 06:43:19;;;;;;;6.45;0.60;;;26.00;71.40;;;;;;6176301;28;20050;-81
2022/07/13 06:46:20;;;;;;;0.40;0.40;;;26.20;70.30;;;;;;6176749;28;20050;-80
2022/07/13 06:49:22;;;;;;;3.08;0.73;;;26.40;68.90;;;;;;6176375;28;20061;-81
2022/07/13 06:52:24;;;;;;;4.18;1.20;;;26.70;68.10;;;;;;6176890;28;20390;-81
2022/07/13 06:55:25;;;;;;;3.10;1.00;;;27.00;67.20;;;;;;6176791;28;20589;-80
2022/07/13 06:58:29;;;;;;;11.85;1.20;;;27.40;66.10;;;;;;6175796;28;20640;-81
2022/07/13 07:01:30;;;;;;;9.45;2.05;;;27.90;64.70;;;;;;6176253;28;20043;-81
2022/07/13 07:04:32;;;;;;;8.43;1.08;;;28.40;63.20;;;;;;6176552;28;20043;-81
2022/07/13 07:07:34;;;;;;;1.95;0.82;;;28.90;61.20;;;;;;6177010;28;20047;-81
2022/07/13 07:10:35;;;;;;;8.13;0.90;;;29.20;59.40;;;;;;6176769;28;20042;-81
2022/07/13 07:13:38;;;;;;;6.25;1.00;;;29.70;58.20;;;;;;6176718;28;20067;-81
2022/07/13 07:16:42;;;;;;;4.18;0.85;;;30.10;56.20;;;;;;6176932;28;20421;-81
2022/07/13 07:19:44;;;;;;;3.53;1.10;;;30.70;54.40;;;;;;6174508;28;20054;-81
2022/07/13 07:22:46;;;;;;;1.63;0.60;;;31.40;53.00;;;;;;6174412;28;20050;-81
2022/07/13 07:25:48;;;;;;;5.03;0.90;;;32.10;50.90;;;;;;6178021;28;20122;-82
2022/07/13 07:28:51;;;;;;;4.32;0.50;;;32.50;49.50;;;;;;6174792;28;20062;-81
2022/07/13 07:31:53;;;;;;;3.63;0.75;;;33.00;47.70;;;;;;6174676;28;20505;-81
2022/07/13 07:34:54;;;;;;;5.40;0.60;;;33.40;46.50;;;;;;6175467;28;20046;-81
2022/07/13 07:37:57;;;;;;;2.22;0.50;;;33.70;45.60;;;;;;6178314;28;20416;-82
2022/07/13 07:40:59;;;;;;;2.45;0.30;;;33.50;45.20;;;;;;6154782;28;20051;-81
2022/07/13 07:44:02;;;;;;;0.77;0.35;;;33.10;45.00;;;;;;6178197;28;20045;-82
2022/07/13 07:47:04;;;;;;;2.53;0.40;;;32.90;45.10;;;;;;6198651;28;20050;-81
2022/07/13 07:50:07;;;;;;;3.20;0.50;;;32.70;45.30;;;;;;6193598;28;20072;-81
2022/07/13 07:53:08;;;;;;;7.95;0.52;;;32.00;46.40;;;;;;6162298;28;20052;-80
2022/07/13 07:56:10;;;;;;;3.95;0.30;;;31.30;46.80;;;;;;6178912;28;20055;-80
2022/07/13 07:59:14;;;;;;;4.10;0.45;;;30.80;48.00;;;;;;6177788;28;20513;-80
2022/07/13 08:02:16;;;;;;;3.42;0.47;;;30.60;49.50;;;;;;6178685;28;20054;-81
2022/07/13 08:05:18;;;;;;;3.40;0.40;;;30.60;49.00;;;;;;6178848;28;20054;-81
2022/07/13 08:08:20;;;;;;;1.52;0.38;;;30.60;48.70;;;;;;6178235;28;20055;-80
2022/07/13 08:11:21;;;;;;;2.58;0.60;;;30.70;48.80;;;;;;6177704;28;20057;-80
2022/07/13 08:14:24;;;;;;;4.05;0.50;;;30.80;48.50;;;;;;6186988;28;20050;-80
2022/07/13 08:17:26;;;;;;;5.47;0.47;;;30.90;48.40;;;;;;6196782;28;20417;-82
2022/07/13 08:20:28;;;;;;;10.65;1.20;;;31.00;47.90;;;;;;6203545;28;20065;-81
2022/07/13 08:26:52;;;;;;;12.88;1.00;;;31.30;47.00;;;;;;6202437;28;20069;-81
2022/07/13 08:29:55;;;;;;;6.57;0.50;;;31.30;45.80;;;;;;6203193;28;20042;-81
2022/07/13 08:32:57;;;;;;;4.50;0.32;;;31.30;45.80;;;;;;6202320;28;20050;-82
2022/07/13 08:39:18;;;;;;;8.02;0.70;;;31.70;44.70;;;;;;6202675;28;20524;-80
2022/07/13 08:42:20;;;;;;;5.53;0.50;;;31.80;44.70;;;;;;6203101;28;20050;-79
2022/07/13 08:45:24;;;;;;;2.78;0.30;;;31.90;44.90;;;;;;6185563;28;20050;-81
2022/07/13 08:48:29;;;;;;;0.38;0.20;;;32.10;44.10;;;;;;6177756;28;20051;-80
2022/07/13 08:51:32;;;;;;;1.35;0.20;;;32.30;43.40;;;;;;6178905;28;20050;-80
2022/07/13 08:54:34;;;;;;;0.30;0.10;;;32.40;42.80;;;;;;6188464;28;20051;-80
2022/07/13 08:57:37;;;;;;;1.52;0.15;;;32.60;41.70;;;;;;6192690;28;20074;-80
2022/07/13 09:00:42;;;;;;;4.00;0.30;;;32.80;41.20;;;;;;6180841;28;20501;-80
2022/07/13 09:03:44;;;;;;;0.20;0.17;;;33.00;40.60;;;;;;6180277;28;20178;-80
2022/07/13 09:06:48;;;;;;;1.27;0.20;;;33.10;40.80;;;;;;6179590;28;20047;-79
2022/07/13 09:09:55;;;;;;;1.05;0.40;;;33.30;40.70;;;;;;6179033;28;20074;-80
2022/07/13 09:12:57;;;;;;;2.05;0.32;;;33.40;40.80;;;;;;6178011;28;20051;-80
2022/07/13 09:16:13;;;;;;;1.25;0.20;;;33.50;40.40;;;;;;6182689;28;20497;-80
2022/07/13 09:19:15;;;;;;;0.40;0.20;;;33.70;40.60;;;;;;6201099;28;20069;-79
2022/07/13 09:22:17;;;;;;;1.38;0.30;;;33.70;40.40;;;;;;6200975;28;20061;-80
2022/07/13 09:25:28;;;;;;;4.03;0.30;;;33.70;40.80;;;;;;6200988;28;20054;-80
2022/07/13 09:28:42;;;;;;;0.95;0.40;;;33.80;40.80;;;;;;6201575;28;20056;-79
2022/07/13 09:31:52;;;;;;;2.60;0.30;;;33.90;41.30;;;;;;6201125;28;20058;-81
2022/07/13 09:34:58;;;;;;;0.57;0.15;;;34.00;40.50;;;;;;6201757;28;20049;-79
2022/07/13 09:38:00;;;;;;;0.98;0.10;;;34.10;39.60;;;;;;6201217;28;20052;-79
2022/07/13 09:41:17;;;;;;;1.65;0.28;;;34.20;39.00;;;;;;6183311;28;20065;-79
2022/07/13 09:47:40;;;;;;;;;;;34.50;38.10;;;;;;6175682;28;19926;-79
2022/07/13 09:50:42;;;;;;;3.72;0.30;;;34.70;37.20;;;;;;6152513;28;19922;-80
2022/07/13 09:53:45;;;;;;;1.48;0.20;;;34.90;36.30;;;;;;6151777;28;20047;-80
2022/07/13 09:56:49;;;;;;;0.10;0.10;;;35.00;35.80;;;;;;6152903;28;20065;-80
2022/07/13 09:59:51;;;;;;;0.43;0.10;;;35.30;35.60;;;;;;6175183;28;20556;-80
2022/07/13 10:02:55;;;;;;;2.63;0.30;;;35.60;35.20;;;;;;6178179;28;20046;-80
2022/07/13 10:05:58;;;;;;;4.90;0.20;;;35.80;35.00;;;;;;6175761;28;20043;-79
2022/07/13 10:09:00;;;;;;;1.45;0.20;;;36.00;34.80;;;;;;6174445;28;20061;-79
2022/07/13 10:12:04;;;;;;;3.38;0.35;;;36.10;34.50;;;;;;6174040;28;20050;-80
2022/07/13 10:15:06;;;;;;;1.95;0.15;;;36.50;34.10;;;;;;6180845;28;20046;-80
2022/07/13 10:18:12;;;;;;;0.85;0.10;;;37.10;33.90;;;;;;6178270;28;20055;-79
2022/07/13 10:21:19;;;;;;;6.30;0.20;;;37.80;33.20;;;;;;6174676;28;20058;-79
2022/07/13 10:24:21;;;;;;;0.70;0.15;;;37.70;32.70;;;;;;6174428;28;20158;-80
2022/07/13 10:27:26;;;;;;;0.57;0.20;;;37.40;33.20;;;;;;6173547;28;20047;-80
2022/07/13 10:30:27;;;;;;;1.08;0.55;;;37.10;33.40;;;;;;6174867;28;20058;-80
2022/07/13 10:33:33;;;;;;;3.28;0.20;;;36.80;33.70;;;;;;6173755;28;20749;-80
2022/07/13 10:36:56;;;;;;;3.40;0.35;;;36.70;34.00;;;;;;6174230;28;20129;-80
2022/07/13 10:40:13;;;;;;;2.38;0.10;;;36.80;33.30;;;;;;6172981;28;20047;-80
2022/07/13 10:43:19;;;;;;;2.58;0.45;;;36.70;32.80;;;;;;6172835;28;20057;-79
2022/07/13 10:46:49;;;;;;;0.80;0.30;;;36.70;33.20;;;;;;6182040;28;20054;-80
2022/07/13 10:49:52;;;;;;;0.98;0.10;;;36.80;32.80;;;;;;6174537;28;20069;-80
2022/07/13 10:52:54;;;;;;;0.50;0.10;;;36.80;32.00;;;;;;6175609;28;20050;-79
2022/07/13 10:56:00;;;;;;;1.45;0.40;;;36.90;31.80;;;;;;6179268;28;20035;-80
2022/07/13 10:59:02;;;;;;;0.30;0.17;;;37.00;31.30;;;;;;6197957;28;20056;-80
2022/07/13 11:02:05;;;;;;;0.52;0.10;;;37.10;31.20;;;;;;6198584;28;20038;-80
2022/07/13 11:05:08;;;;;;;0.88;0.10;;;37.10;30.80;;;;;;6199028;28;20054;-80
2022/07/13 11:08:14;;;;;;;0.52;0.17;;;37.10;30.80;;;;;;6198010;28;20485;-80
2022/07/13 11:11:18;;;;;;;9.13;0.50;;;37.20;31.10;;;;;;6198329;28;20052;-80
2022/07/13 11:14:59;;;;;;;0.73;0.30;;;37.40;30.00;;;;;;6191114;28;20046;-81
2022/07/13 11:18:27;;;;;;;0.75;0.10;;;37.30;30.50;;;;;;6195234;28;20046;-80
2022/07/13 11:22:07;;;;;;;1.63;0.30;;;37.70;30.60;;;;;;6197458;28;20085;-80
2022/07/13 11:25:35;;;;;;;5.30;0.68;;;38.30;29.60;;;;;;6198552;28;20057;-80
2022/07/13 11:28:44;;;;;;;1.38;0.17;;;38.60;29.60;;;;;;6196040;28;20069;-80
2022/07/13 11:31:46;;;;;;;0.05;0.00;;;39.00;29.20;;;;;;6198159;28;20055;-81
2022/07/13 11:34:48;;;;;;;3.17;0.28;;;38.90;29.40;;;;;;6197205;28;20046;-80
2022/07/13 11:37:52;;;;;;;1.95;0.43;;;39.00;29.30;;;;;;6197651;28;20551;-80
2022/07/13 11:40:54;;;;;;;2.55;0.15;;;39.10;30.50;;;;;;6197962;28;20062;-80
2022/07/13 11:43:56;;;;;;;1.58;0.22;;;39.30;30.70;;;;;;6189983;28;20053;-80
2022/07/13 11:46:59;;;;;;;2.08;0.28;;;39.50;30.30;;;;;;6188693;28;20644;-80
2022/07/13 11:50:01;;;;;;;3.40;0.20;;;39.50;30.20;;;;;;6189513;28;20047;-80
2022/07/13 11:53:04;;;;;;;0.52;0.15;;;39.50;30.20;;;;;;6173177;28;20046;-81
2022/07/13 11:56:08;;;;;;;1.33;0.30;;;39.50;30.50;;;;;;6193809;28;20567;-81
2022/07/13 11:59:10;;;;;;;2.65;0.28;;;39.50;30.20;;;;;;6191210;28;20401;-81
2022/07/13 12:02:14;;;;;;;2.15;0.32;;;39.50;30.30;;;;;;6196667;28;20431;-80
2022/07/13 12:05:23;;;;;;;1.35;0.08;;;39.50;30.50;;;;;;6197581;28;20057;-81
2022/07/13 12:08:26;;;;;;;2.33;0.40;;;39.60;30.80;;;;;;6199731;28;20054;-81
2022/07/13 12:11:28;;;;;;;2.38;0.40;;;39.80;30.50;;;;;;6198476;28;20050;-80
2022/07/13 12:14:30;;;;;;;2.78;0.10;;;40.00;30.60;;;;;;6187761;28;20046;-80
2022/07/13 12:17:43;;;;;;;0.30;0.20;;;39.80;30.50;;;;;;6191905;28;20046;-80
2022/07/13 12:20:45;;;;;;;0.52;0.20;;;39.70;30.50;;;;;;6198311;28;20047;-80
2022/07/13 12:23:49;;;;;;;6.43;0.40;;;39.80;30.60;;;;;;6198689;28;20058;-80
2022/07/13 12:26:53;;;;;;;0.75;0.20;;;39.90;29.70;;;;;;6201262;28;20058;-80
2022/07/13 12:30:06;;;;;;;4.60;0.98;;;39.80;29.50;;;;;;6201915;28;20436;-80
2022/07/13 12:33:10;;;;;;;3.95;0.40;;;39.90;29.40;;;;;;6203424;28;20077;-80
2022/07/13 12:36:12;;;;;;;0.15;0.10;;;40.10;29.10;;;;;;6201711;28;20459;-80
2022/07/13 12:39:16;;;;;;;1.85;0.20;;;40.40;28.30;;;;;;6204511;28;20057;-80
2022/07/13 12:42:20;;;;;;;0.30;0.10;;;40.60;28.00;;;;;;6202140;28;20042;-79
2022/07/13 12:45:21;;;;;;;2.45;0.20;;;41.00;28.40;;;;;;6155379;28;20145;-80
2022/07/13 12:48:24;;;;;;;0.10;0.10;;;41.10;28.10;;;;;;6203398;28;20061;-80
2022/07/13 12:51:43;;;;;;;0.70;0.10;;;41.00;27.40;;;;;;6203656;28;20551;-81
2022/07/13 12:54:48;;;;;;;1.42;0.50;;;40.70;27.50;;;;;;6206093;28;20042;-81
2022/07/13 12:57:51;;;;;;;0.55;0.10;;;40.30;27.70;;;;;;6205373;28;20145;-80
2022/07/13 13:00:53;;;;;;;0.05;0.03;;;40.10;27.90;;;;;;6203298;28;20051;-81
2022/07/13 13:03:54;;;;;;;0.52;0.20;;;39.70;28.10;;;;;;6203946;28;20049;-80
2022/07/13 13:06:56;;;;;;;1.10;0.10;;;39.40;28.60;;;;;;6201113;28;20066;-80
2022/07/13 13:09:59;;;;;;;1.83;0.20;;;39.00;28.90;;;;;;6204938;28;20053;-80
2022/07/13 13:13:01;;;;;;;3.60;0.68;;;38.50;29.30;;;;;;6196796;28;20047;-82
2022/07/13 13:16:03;;;;;;;1.55;0.20;;;38.20;29.60;;;;;;6190582;28;20512;-79
2022/07/13 13:19:05;;;;;;;0.57;0.30;;;38.00;29.90;;;;;;6200313;28;20527;-79
2022/07/13 13:22:07;;;;;;;1.98;0.30;;;37.90;29.80;;;;;;6200684;28;20146;-79
2022/07/13 13:25:10;;;;;;;3.70;0.30;;;37.70;29.70;;;;;;6201581;28;20054;-80
2022/07/13 13:28:12;;;;;;;0.30;0.10;;;37.50;29.80;;;;;;6201860;28;20527;-79
2022/07/13 13:31:13;;;;;;;0.10;0.10;;;37.40;30.00;;;;;;6202636;28;20050;-79
2022/07/13 13:34:15;;;;;;;1.13;0.30;;;37.30;30.10;;;;;;6201436;28;20038;-80
2022/07/13 13:37:17;;;;;;;2.13;0.20;;;37.20;30.00;;;;;;6200987;28;20069;-79
2022/07/13 13:40:20;;;;;;;2.88;0.10;;;37.30;30.20;;;;;;6202334;28;20572;-80
2022/07/13 13:43:22;;;;;;;1.55;0.20;;;37.60;30.10;;;;;;6202616;28;20050;-81
2022/07/13 13:46:23;;;;;;;0.75;0.17;;;37.80;29.70;;;;;;6201407;28;20070;-81
2022/07/13 13:49:25;;;;;;;6.40;0.52;;;37.80;29.90;;;;;;6201848;28;20042;-80
2022/07/13 13:52:27;;;;;;;4.25;0.15;;;37.60;30.00;;;;;;6202459;28;20077;-80
2022/07/13 13:55:30;;;;;;;1.75;0.00;;;37.40;30.50;;;;;;6201902;28;20408;-80
2022/07/13 13:58:32;;;;;;;0.25;0.17;;;37.20;30.70;;;;;;6201197;28;20512;-81
2022/07/13 14:01:33;;;;;;;2.53;0.30;;;36.90;31.10;;;;;;6176592;28;20043;-79
2022/07/13 14:04:35;;;;;;;0.22;0.10;;;36.60;31.60;;;;;;6176290;28;20057;-79
2022/07/13 14:07:37;;;;;;;2.38;0.20;;;36.40;31.50;;;;;;6175985;28;20546;-79
2022/07/13 14:10:42;;;;;;;1.65;0.20;;;36.10;31.50;;;;;;6176957;28;20051;-79
2022/07/13 14:13:46;;;;;;;0.35;0.10;;;35.90;32.00;;;;;;6180900;28;20192;-79
2022/07/13 14:16:48;;;;;;;1.98;0.30;;;35.70;32.20;;;;;;6192365;28;20050;-79
2022/07/13 14:19:50;;;;;;;1.55;0.32;;;35.50;32.20;;;;;;6199116;28;20049;-78
2022/07/13 14:22:51;;;;;;;0.70;0.10;;;35.50;32.90;;;;;;6198798;28;20057;-79
2022/07/13 14:25:55;;;;;;;0.82;0.10;;;35.60;33.10;;;;;;6199261;28;20129;-81
2022/07/13 14:28:57;;;;;;;2.05;0.10;;;35.80;33.00;;;;;;6199984;28;20077;-79
2022/07/13 14:31:58;;;;;;;0.90;0.20;;;36.00;32.40;;;;;;6198786;28;20049;-79
2022/07/13 14:35:00;;;;;;;2.92;0.30;;;36.30;32.50;;;;;;6198667;28;20050;-79
2022/07/13 14:38:04;;;;;;;3.00;0.38;;;36.70;32.20;;;;;;6197845;28;20125;-79
2022/07/13 14:41:08;;;;;;;0.25;0.15;;;36.80;32.10;;;;;;6198786;28;20057;-79
2022/07/13 14:44:10;;;;;;;2.47;0.30;;;36.70;31.90;;;;;;6190635;28;20050;-79
2022/07/13 14:47:11;;;;;;;1.88;0.20;;;36.70;32.00;;;;;;6182298;28;20595;-80
2022/07/13 14:50:13;;;;;;;3.53;0.32;;;36.80;32.20;;;;;;6176212;28;20047;-80
2022/07/13 14:53:15;;;;;;;2.03;0.32;;;36.80;32.10;;;;;;6196970;28;20062;-80
2022/07/13 14:56:18;;;;;;;2.80;0.60;;;36.70;31.90;;;;;;6175389;28;20078;-80
2022/07/13 14:59:20;;;;;;;3.92;0.20;;;36.50;31.80;;;;;;6166479;28;20409;-79
2022/07/13 15:02:22;;;;;;;0.50;0.30;;;36.40;32.00;;;;;;6169603;28;20050;-79
2022/07/13 15:05:27;;;;;;;0.50;0.20;;;36.30;32.30;;;;;;6174345;28;20125;-79
2022/07/13 15:08:29;;;;;;;3.35;0.30;;;36.00;32.10;;;;;;6174341;28;20058;-79
2022/07/13 15:11:32;;;;;;;3.50;0.22;;;35.80;32.40;;;;;;6164427;28;20679;-79
2022/07/13 15:14:34;;;;;;;0.45;0.20;;;35.60;32.40;;;;;;6157920;28;20047;-80
2022/07/13 15:17:36;;;;;;;0.40;0.20;;;35.60;32.90;;;;;;6169202;28;20049;-81
2022/07/13 15:20:39;;;;;;;4.15;0.17;;;35.40;33.70;;;;;;6171190;28;20062;-80
2022/07/13 15:23:41;;;;;;;1.23;0.20;;;35.20;32.50;;;;;;6151801;28;20047;-80
2022/07/13 15:26:44;;;;;;;0.52;0.35;;;35.10;32.80;;;;;;6152556;28;20063;-81
2022/07/13 15:29:46;;;;;;;2.60;0.30;;;35.00;33.20;;;;;;6152937;28;20048;-81
2022/07/13 15:32:47;;;;;;;2.85;0.20;;;34.90;33.40;;;;;;6153090;28;20055;-80
2022/07/13 15:35:49;;;;;;;4.80;0.35;;;34.80;33.50;;;;;;6151616;28;20047;-81
2022/07/13 15:38:51;;;;;;;2.78;0.63;;;34.80;33.80;;;;;;6152415;28;20047;-80
2022/07/13 15:41:54;;;;;;;0.45;0.20;;;34.70;34.10;;;;;;6151632;28;20043;-81
2022/07/13 15:44:56;;;;;;;2.00;0.45;;;34.70;33.60;;;;;;6153729;29;20051;-81
2022/07/13 15:47:58;;;;;;;0.40;0.22;;;34.70;33.90;;;;;;6152778;28;20134;-81
2022/07/13 15:50:59;;;;;;;4.82;0.20;;;34.50;34.60;;;;;;6151556;28;20043;-81
2022/07/13 15:54:01;;;;;;;1.80;0.15;;;34.40;34.90;;;;;;6159067;28;20050;-79
2022/07/13 15:57:05;;;;;;;4.15;0.38;;;34.30;34.90;;;;;;6175592;28;20061;-80
2022/07/13 16:00:07;;;;;;;4.22;0.25;;;34.10;35.40;;;;;;6149326;28;20054;-80
2022/07/13 16:03:09;;;;;;;2.13;0.17;;;34.10;35.80;;;;;;6183339;28;20050;-80
2022/07/13 16:06:11;;;;;;;2.08;0.45;;;34.10;35.60;;;;;;6181498;28;20047;-80